Time;durP1;ratioP1;P1;durP2;ratioP2;P2;SDS_P1;SDS_P2;PMS_P1;PMS_P2;Temp;Humidity;BMP_temperature;BMP_pressure;BME280_temperature;BME280_humidity;BME280_pressure;Samples;Min_cycle;Max_cycle;Signal;HPM_P1;HPM_P2
2023/05/18 00:01:05;;;;;;;0.50;0.40;;;6.90;99.90;;;;;;5016650;28;20200;-82
2023/05/18 00:03:32;;;;;;;0.50;0.40;;;6.90;99.90;;;;;;5017049;28;20192;-80
2023/05/18 00:06:06;;;;;;;0.50;0.40;;;6.90;99.90;;;;;;5016487;28;20227;-83
2023/05/18 00:08:33;;;;;;;0.50;0.40;;;6.90;99.90;;;;;;5016854;28;20200;-82
2023/05/18 00:11:00;;;;;;;0.50;0.40;;;6.90;99.90;;;;;;5016806;28;20283;-82
2023/05/18 00:13:27;;;;;;;0.50;0.40;;;6.80;99.90;;;;;;5016428;28;20196;-83
2023/05/18 00:15:54;;;;;;;0.50;0.40;;;6.70;99.90;;;;;;5016349;28;20315;-80
2023/05/18 00:18:23;;;;;;;0.50;0.43;;;6.80;99.90;;;;;;5017373;28;20264;-83
2023/05/18 00:20:57;;;;;;;0.60;0.60;;;6.80;99.90;;;;;;5037131;28;20250;-83
2023/05/18 00:23:28;;;;;;;0.50;0.40;;;6.80;99.90;;;;;;5046345;28;20211;-83
2023/05/18 00:25:56;;;;;;;0.50;0.43;;;6.70;99.90;;;;;;5037969;28;20211;-83
2023/05/18 00:28:23;;;;;;;0.50;0.40;;;6.70;99.90;;;;;;5032129;28;20274;-80
2023/05/18 00:30:50;;;;;;;0.60;0.40;;;6.70;99.90;;;;;;5025905;28;20290;-82
2023/05/18 00:33:16;;;;;;;0.50;0.40;;;6.70;99.90;;;;;;5023645;28;20279;-82
2023/05/18 00:35:43;;;;;;;0.50;0.40;;;6.70;99.90;;;;;;5026366;28;20718;-83
2023/05/18 00:38:10;;;;;;;0.50;0.40;;;6.60;99.90;;;;;;5023241;28;20291;-82
2023/05/18 00:40:39;;;;;;;0.50;0.40;;;6.60;99.90;;;;;;5026259;28;20335;-82
2023/05/18 00:43:06;;;;;;;0.93;0.93;;;6.60;99.90;;;;;;5019468;28;20207;-81
2023/05/18 00:45:33;;;;;;;0.50;0.40;;;6.60;99.90;;;;;;5016545;28;20239;-82
2023/05/18 00:48:00;;;;;;;0.50;0.50;;;6.60;99.90;;;;;;5016626;28;20204;-82
2023/05/18 00:50:27;;;;;;;0.50;0.40;;;6.60;99.90;;;;;;5016742;28;20311;-81
2023/05/18 00:52:53;;;;;;;0.50;0.40;;;6.50;99.90;;;;;;5016523;28;20200;-82
2023/05/18 00:55:21;;;;;;;0.50;0.40;;;6.50;99.90;;;;;;5029482;28;20230;-82
2023/05/18 00:57:50;;;;;;;0.50;0.40;;;6.50;99.90;;;;;;5027417;28;20208;-83
2023/05/18 01:00:19;;;;;;;0.50;0.40;;;6.40;99.90;;;;;;5023056;28;20203;-82
2023/05/18 01:02:46;;;;;;;0.50;0.40;;;6.30;99.90;;;;;;5023022;28;20552;-80
2023/05/18 01:05:13;;;;;;;0.50;0.40;;;6.30;99.90;;;;;;5021790;28;20302;-82
2023/05/18 01:07:42;;;;;;;0.60;0.40;;;6.30;99.90;;;;;;5023277;28;20196;-82
2023/05/18 01:10:10;;;;;;;0.50;0.40;;;6.30;99.90;;;;;;5024301;28;20243;-80
2023/05/18 01:12:43;;;;;;;0.50;0.40;;;6.30;99.90;;;;;;5023775;28;20223;-80
2023/05/18 01:15:15;;;;;;;0.50;0.40;;;6.20;99.90;;;;;;5018463;28;20249;-81
2023/05/18 01:17:53;;;;;;;0.50;0.40;;;6.30;99.90;;;;;;5015950;28;20567;-80
2023/05/18 01:20:26;;;;;;;0.50;0.40;;;6.20;99.90;;;;;;5031858;28;20192;-82
2023/05/18 01:23:08;;;;;;;0.50;0.40;;;6.20;99.90;;;;;;5015586;28;20200;-81
2023/05/18 01:25:48;;;;;;;0.50;0.40;;;6.20;99.90;;;;;;5015345;28;20330;-80
2023/05/18 01:28:20;;;;;;;0.50;0.50;;;6.10;99.90;;;;;;5014743;28;20211;-82
2023/05/18 01:30:48;;;;;;;0.50;0.40;;;6.10;99.90;;;;;;5015425;28;20710;-80
2023/05/18 01:33:15;;;;;;;0.50;0.43;;;6.00;99.90;;;;;;5014616;28;20563;-83
2023/05/18 01:35:46;;;;;;;0.50;0.40;;;6.10;99.90;;;;;;5015411;28;20302;-82
2023/05/18 01:38:15;;;;;;;0.50;0.40;;;6.00;99.90;;;;;;5015438;28;20200;-82
2023/05/18 01:40:51;;;;;;;0.50;0.40;;;6.00;99.90;;;;;;5028678;28;20203;-83
2023/05/18 01:43:23;;;;;;;0.50;0.40;;;5.90;99.90;;;;;;5035781;28;20315;-81
2023/05/18 01:45:53;;;;;;;0.50;0.40;;;5.80;99.90;;;;;;5036871;28;20271;-79
2023/05/18 01:48:24;;;;;;;0.50;0.40;;;5.80;99.90;;;;;;5035922;28;20244;-83
2023/05/18 01:50:54;;;;;;;0.50;0.45;;;5.80;99.90;;;;;;5036471;28;20216;-82
2023/05/18 01:53:25;;;;;;;0.50;0.40;;;5.80;99.90;;;;;;5036014;28;20253;-84
2023/05/18 01:55:54;;;;;;;0.50;0.40;;;5.80;99.90;;;;;;5036890;28;20227;-81
2023/05/18 01:58:24;;;;;;;0.50;0.40;;;5.70;99.90;;;;;;5035986;28;20181;-83
2023/05/18 02:00:51;;;;;;;0.50;0.40;;;5.60;99.90;;;;;;5026393;28;20195;-82
2023/05/18 02:03:18;;;;;;;0.50;0.40;;;5.60;99.90;;;;;;5014213;28;20254;-82
2023/05/18 02:05:45;;;;;;;0.50;0.40;;;5.60;99.90;;;;;;5014641;28;20318;-81
2023/05/18 02:08:12;;;;;;;0.50;0.40;;;5.50;99.90;;;;;;5014505;28;20239;-81
2023/05/18 02:10:39;;;;;;;0.50;0.40;;;5.50;99.90;;;;;;5014780;28;20299;-82
2023/05/18 02:13:05;;;;;;;0.50;0.40;;;5.50;99.90;;;;;;5014244;28;20287;-80
2023/05/18 02:15:33;;;;;;;0.50;0.40;;;5.50;99.90;;;;;;5014495;28;20223;-81
2023/05/18 02:18:01;;;;;;;0.50;0.40;;;5.50;99.90;;;;;;5013724;28;20196;-83
2023/05/18 02:20:32;;;;;;;0.50;0.40;;;5.50;99.90;;;;;;5014611;28;20192;-82
2023/05/18 02:22:59;;;;;;;0.50;0.40;;;5.40;99.90;;;;;;5014635;28;20200;-82
2023/05/18 02:25:26;;;;;;;0.50;0.40;;;5.40;99.90;;;;;;5033364;28;20241;-82
2023/05/18 02:27:52;;;;;;;0.50;0.40;;;5.30;99.90;;;;;;5018529;28;20666;-79
2023/05/18 02:30:20;;;;;;;0.50;0.40;;;5.30;99.90;;;;;;5013950;28;20200;-83
2023/05/18 02:32:48;;;;;;;0.50;0.40;;;5.30;99.90;;;;;;5014184;28;20214;-82
2023/05/18 02:35:16;;;;;;;0.50;0.40;;;5.20;99.90;;;;;;5014217;28;20568;-80
2023/05/18 02:37:43;;;;;;;0.50;0.50;;;5.20;99.90;;;;;;5014216;28;20687;-82
2023/05/18 02:40:11;;;;;;;0.50;0.40;;;5.20;99.90;;;;;;5014340;28;20619;-82
2023/05/18 02:42:38;;;;;;;0.50;0.40;;;5.10;99.90;;;;;;5014254;28;20682;-80
2023/05/18 02:45:06;;;;;;;0.50;0.50;;;5.10;99.90;;;;;;5013834;28;20199;-82
2023/05/18 02:47:33;;;;;;;0.50;0.40;;;5.10;99.90;;;;;;5014351;28;20196;-81
2023/05/18 02:50:01;;;;;;;0.50;0.40;;;5.00;99.90;;;;;;5014261;28;20655;-80
2023/05/18 02:52:28;;;;;;;0.50;0.50;;;5.00;99.90;;;;;;5022035;28;20208;-82
2023/05/18 02:54:55;;;;;;;0.50;0.40;;;5.00;99.90;;;;;;5014019;28;20203;-82
2023/05/18 02:57:22;;;;;;;0.50;0.40;;;5.00;99.90;;;;;;5014086;28;20287;-82
2023/05/18 02:59:48;;;;;;;0.50;0.40;;;5.00;99.90;;;;;;5014564;28;20714;-83
2023/05/18 03:02:15;;;;;;;0.50;0.40;;;5.00;99.90;;;;;;5017673;28;20199;-82
2023/05/18 03:04:42;;;;;;;0.50;0.40;;;5.00;99.90;;;;;;5017378;28;20196;-81
2023/05/18 03:07:10;;;;;;;0.50;0.40;;;5.00;99.90;;;;;;5017994;28;20224;-80
2023/05/18 03:09:38;;;;;;;0.50;0.40;;;5.00;99.90;;;;;;5017976;28;20283;-81
2023/05/18 03:12:05;;;;;;;0.50;0.40;;;5.00;99.90;;;;;;5017107;28;20220;-80
2023/05/18 03:14:32;;;;;;;0.50;0.40;;;4.90;99.90;;;;;;5017638;28;20200;-81
2023/05/18 03:16:59;;;;;;;0.50;0.40;;;4.90;99.90;;;;;;5017550;28;20219;-80
2023/05/18 03:19:26;;;;;;;0.60;0.60;;;4.90;99.90;;;;;;5017327;28;20286;-82
2023/05/18 03:21:53;;;;;;;0.50;0.40;;;4.90;99.90;;;;;;5017701;28;20567;-81
2023/05/18 03:24:25;;;;;;;0.50;0.40;;;4.90;99.90;;;;;;5017594;28;20200;-82
2023/05/18 03:26:53;;;;;;;0.50;0.40;;;4.90;99.90;;;;;;5018066;28;20220;-79
2023/05/18 03:29:20;;;;;;;0.50;0.40;;;4.90;99.90;;;;;;5016999;28;20291;-81
2023/05/18 03:31:47;;;;;;;0.50;0.40;;;4.90;99.90;;;;;;5017259;28;20215;-78
2023/05/18 03:34:14;;;;;;;0.50;0.40;;;4.90;99.90;;;;;;5017234;28;20310;-83
2023/05/18 03:36:41;;;;;;;0.50;0.40;;;4.90;99.90;;;;;;5017107;28;20215;-83
2023/05/18 03:39:08;;;;;;;0.50;0.40;;;4.90;99.90;;;;;;5016815;28;20386;-80
2023/05/18 03:41:36;;;;;;;0.50;0.40;;;4.90;99.90;;;;;;5016740;28;20215;-82
2023/05/18 03:44:03;;;;;;;0.50;0.40;;;4.90;99.90;;;;;;5016748;28;20295;-80
2023/05/18 03:46:30;;;;;;;0.50;0.40;;;4.90;99.90;;;;;;5017202;28;20222;-84
2023/05/18 03:48:57;;;;;;;0.50;0.40;;;4.90;99.90;;;;;;5020112;28;20287;-81
2023/05/18 03:51:25;;;;;;;0.50;0.40;;;4.90;99.90;;;;;;5018496;28;20230;-81
2023/05/18 03:53:52;;;;;;;0.50;0.50;;;4.90;99.90;;;;;;5021760;28;20211;-82
2023/05/18 03:56:19;;;;;;;0.50;0.40;;;4.90;99.90;;;;;;5027597;28;20243;-79
2023/05/18 03:58:48;;;;;;;0.50;0.50;;;4.90;99.90;;;;;;5028824;28;20200;-81
2023/05/18 04:01:17;;;;;;;0.50;0.40;;;5.00;99.90;;;;;;5027692;28;20678;-80
2023/05/18 04:03:44;;;;;;;0.50;0.40;;;5.00;99.90;;;;;;5023057;28;20258;-83
2023/05/18 04:06:11;;;;;;;0.50;0.40;;;5.00;99.90;;;;;;5028579;28;20231;-80
2023/05/18 04:08:39;;;;;;;0.50;0.40;;;5.00;99.90;;;;;;5028636;28;20290;-80
2023/05/18 04:11:06;;;;;;;0.50;0.40;;;5.00;99.90;;;;;;5030270;28;20219;-79
2023/05/18 04:13:32;;;;;;;0.50;0.40;;;5.00;99.90;;;;;;5028418;28;20203;-80
2023/05/18 04:16:02;;;;;;;0.50;0.40;;;5.10;99.90;;;;;;5027336;28;20299;-79
2023/05/18 04:18:31;;;;;;;0.50;0.40;;;5.10;99.90;;;;;;5033204;28;20226;-83
2023/05/18 04:20:59;;;;;;;0.50;0.40;;;5.20;99.90;;;;;;5043476;28;20211;-81
2023/05/18 04:23:27;;;;;;;0.50;0.40;;;5.30;99.90;;;;;;5028290;28;20707;-81
2023/05/18 04:25:55;;;;;;;0.50;0.50;;;5.30;99.90;;;;;;5019521;28;20220;-79
2023/05/18 04:28:21;;;;;;;0.50;0.40;;;5.50;99.90;;;;;;5020113;28;20222;-82
2023/05/18 04:30:48;;;;;;;0.50;0.40;;;5.50;99.90;;;;;;5019771;28;20298;-82
2023/05/18 04:33:19;;;;;;;0.50;0.40;;;5.60;99.90;;;;;;5019793;28;20231;-81
2023/05/18 04:35:46;;;;;;;0.50;0.50;;;5.70;99.90;;;;;;5019221;28;20251;-81
2023/05/18 04:38:13;;;;;;;0.77;0.75;;;5.80;99.90;;;;;;5027136;28;20286;-82
2023/05/18 04:40:41;;;;;;;0.50;0.40;;;5.80;99.90;;;;;;5035002;28;20227;-83
2023/05/18 04:43:08;;;;;;;0.50;0.40;;;5.90;99.90;;;;;;5030763;28;20223;-81
2023/05/18 04:45:35;;;;;;;0.50;0.40;;;6.00;99.90;;;;;;5032720;28;20280;-80
2023/05/18 04:48:01;;;;;;;0.93;0.93;;;6.10;99.90;;;;;;5034943;28;20192;-80
2023/05/18 04:50:30;;;;;;;0.50;0.40;;;6.10;99.90;;;;;;5033955;28;20240;-83
2023/05/18 04:53:00;;;;;;;0.50;0.40;;;6.20;99.90;;;;;;5032170;28;20243;-83
2023/05/18 04:55:29;;;;;;;0.50;0.50;;;6.30;99.90;;;;;;5018407;28;20224;-82
2023/05/18 04:57:58;;;;;;;0.50;0.40;;;6.30;99.90;;;;;;5018376;28;20223;-80
2023/05/18 05:00:27;;;;;;;1.00;1.00;;;6.40;99.90;;;;;;5017597;28;20207;-82
2023/05/18 05:02:55;;;;;;;2.50;0.75;;;6.40;99.90;;;;;;5017330;28;20268;-81
2023/05/18 05:05:22;;;;;;;0.50;0.40;;;6.40;99.90;;;;;;5016845;28;20594;-82
2023/05/18 05:07:51;;;;;;;0.50;0.40;;;6.40;99.90;;;;;;5016704;28;20203;-81
2023/05/18 05:10:18;;;;;;;0.50;0.40;;;6.50;99.90;;;;;;5016346;28;20250;-81
2023/05/18 05:12:44;;;;;;;0.50;0.40;;;6.60;99.90;;;;;;5016599;28;20220;-81
2023/05/18 05:15:11;;;;;;;1.42;1.13;;;6.70;99.90;;;;;;5016612;28;20216;-82
2023/05/18 05:17:38;;;;;;;0.50;0.40;;;6.90;99.90;;;;;;5017326;28;20242;-81
2023/05/18 05:20:06;;;;;;;0.50;0.40;;;7.00;99.90;;;;;;5017502;28;20204;-81
2023/05/18 05:22:33;;;;;;;0.60;0.60;;;7.00;99.90;;;;;;5032006;28;20196;-81
2023/05/18 05:25:01;;;;;;;0.50;0.40;;;7.10;99.90;;;;;;5030229;28;20203;-82
2023/05/18 05:27:28;;;;;;;0.80;0.80;;;7.20;99.90;;;;;;5015690;28;20230;-81
2023/05/18 05:29:56;;;;;;;0.50;0.40;;;7.20;99.90;;;;;;5016600;28;20265;-83
2023/05/18 05:32:23;;;;;;;0.50;0.40;;;7.30;99.90;;;;;;5015801;28;20212;-81
2023/05/18 05:34:53;;;;;;;0.50;0.50;;;7.40;99.90;;;;;;5016013;28;20287;-81
2023/05/18 05:37:20;;;;;;;0.50;0.50;;;7.50;99.90;;;;;;5016617;28;20598;-81
2023/05/18 05:39:47;;;;;;;0.50;0.40;;;7.50;99.90;;;;;;5015675;28;20210;-82
2023/05/18 05:42:16;;;;;;;0.50;0.50;;;7.70;99.90;;;;;;5015466;28;20259;-79
2023/05/18 05:44:43;;;;;;;0.50;0.40;;;7.80;99.90;;;;;;5015626;28;20291;-81
2023/05/18 05:47:10;;;;;;;0.93;0.88;;;7.90;99.90;;;;;;5015828;28;20228;-79
2023/05/18 05:49:37;;;;;;;0.80;0.80;;;7.90;99.90;;;;;;5015493;28;20283;-81
2023/05/18 05:52:04;;;;;;;0.50;0.40;;;8.00;99.90;;;;;;5015899;28;20307;-80
2023/05/18 05:54:31;;;;;;;1.45;1.45;;;8.10;99.90;;;;;;5014939;28;20232;-80
2023/05/18 05:56:58;;;;;;;0.50;0.40;;;8.20;99.90;;;;;;5015752;28;20230;-81
2023/05/18 05:59:26;;;;;;;0.50;0.50;;;8.30;99.90;;;;;;5015476;28;20267;-82
2023/05/18 06:01:53;;;;;;;0.73;0.68;;;8.50;99.90;;;;;;5015265;28;20681;-80
2023/05/18 06:04:20;;;;;;;0.50;0.40;;;8.90;99.90;;;;;;5015673;28;20242;-80
2023/05/18 06:06:48;;;;;;;1.23;1.23;;;9.60;99.90;;;;;;5015498;28;20227;-81
2023/05/18 06:09:15;;;;;;;4.40;1.85;;;10.70;99.90;;;;;;5015509;28;20616;-81
2023/05/18 06:11:42;;;;;;;0.70;0.70;;;12.00;99.90;;;;;;5015975;28;20220;-82
2023/05/18 06:14:09;;;;;;;1.70;1.70;;;13.00;99.90;;;;;;5015187;28;20235;-82
2023/05/18 06:16:37;;;;;;;0.50;0.40;;;14.10;99.90;;;;;;5015859;28;20271;-82
2023/05/18 06:19:04;;;;;;;0.60;0.50;;;15.20;99.90;;;;;;5015709;28;20451;-80
2023/05/18 06:21:31;;;;;;;0.50;0.40;;;15.90;94.90;;;;;;5014456;28;20450;-81
2023/05/18 06:24:00;;;;;;;0.60;0.50;;;16.20;92.70;;;;;;5015649;28;20458;-81
2023/05/18 06:26:27;;;;;;;0.50;0.40;;;17.10;88.80;;;;;;5015555;28;20462;-82
2023/05/18 06:28:53;;;;;;;0.50;0.30;;;17.70;84.30;;;;;;5015258;28;20478;-79
2023/05/18 06:31:20;;;;;;;0.53;0.43;;;18.20;86.00;;;;;;5015946;28;20542;-83
2023/05/18 06:33:49;;;;;;;0.60;0.40;;;19.20;79.30;;;;;;5016058;28;20962;-82
2023/05/18 06:36:16;;;;;;;0.50;0.30;;;19.70;75.30;;;;;;5017080;28;20494;-84
2023/05/18 06:38:43;;;;;;;0.50;0.50;;;20.10;68.80;;;;;;5016719;28;20482;-81
2023/05/18 06:41:10;;;;;;;0.60;0.40;;;20.50;68.30;;;;;;5014978;28;20447;-81
2023/05/18 06:43:36;;;;;;;0.50;0.30;;;21.20;68.20;;;;;;5015535;28;20443;-82
2023/05/18 06:46:03;;;;;;;0.70;0.47;;;22.10;66.20;;;;;;5015672;28;20553;-81
2023/05/18 06:48:30;;;;;;;0.93;0.83;;;22.40;63.40;;;;;;5015249;28;20534;-82
2023/05/18 06:50:58;;;;;;;0.77;0.77;;;22.80;63.70;;;;;;5023717;28;20509;-80
2023/05/18 06:53:26;;;;;;;1.27;0.77;;;23.40;58.90;;;;;;5015638;28;20561;-81
2023/05/18 06:55:53;;;;;;;0.50;0.40;;;23.10;57.50;;;;;;5028281;28;20489;-83
2023/05/18 06:58:20;;;;;;;0.50;0.30;;;22.70;56.50;;;;;;5012654;28;20526;-82
2023/05/18 07:00:48;;;;;;;0.50;0.30;;;23.10;57.70;;;;;;5013296;28;20509;-83
2023/05/18 07:03:15;;;;;;;0.50;0.30;;;23.30;58.10;;;;;;5016439;28;20442;-78
2023/05/18 07:05:42;;;;;;;0.50;0.40;;;23.70;58.00;;;;;;5021843;28;20506;-80
2023/05/18 07:08:10;;;;;;;0.70;0.50;;;24.00;55.50;;;;;;5015103;28;20475;-81
2023/05/18 07:10:37;;;;;;;0.60;0.50;;;24.30;56.40;;;;;;5013339;28;20439;-80
2023/05/18 07:13:04;;;;;;;0.50;0.30;;;24.70;56.40;;;;;;5027804;28;20488;-80
2023/05/18 07:15:31;;;;;;;5.13;0.80;;;24.90;53.80;;;;;;5022344;28;20984;-80
2023/05/18 07:17:58;;;;;;;1.67;0.60;;;25.10;53.00;;;;;;5013506;28;20530;-81
2023/05/18 07:20:25;;;;;;;0.50;0.37;;;24.80;52.50;;;;;;5013287;28;20443;-81
2023/05/18 07:22:53;;;;;;;0.50;0.30;;;24.30;52.60;;;;;;5013207;28;20443;-83
2023/05/18 07:25:22;;;;;;;2.53;1.73;;;24.10;53.90;;;;;;5013111;28;20505;-81
2023/05/18 07:27:50;;;;;;;0.60;0.50;;;24.20;56.00;;;;;;5025905;28;20530;-80
2023/05/18 07:30:17;;;;;;;0.50;0.40;;;24.70;54.40;;;;;;5017547;28;20451;-81
2023/05/18 07:32:44;;;;;;;0.50;0.30;;;25.20;52.90;;;;;;5013337;28;20474;-84
2023/05/18 07:35:11;;;;;;;3.63;1.27;;;25.80;51.70;;;;;;5013709;28;20487;-83
2023/05/18 07:37:38;;;;;;;0.50;0.30;;;26.00;53.70;;;;;;5012817;28;20457;-82
2023/05/18 07:40:08;;;;;;;0.50;0.30;;;26.80;52.80;;;;;;5013357;28;20435;-80
2023/05/18 07:42:37;;;;;;;1.30;1.20;;;27.00;50.90;;;;;;5013391;28;20474;-84
2023/05/18 07:45:04;;;;;;;4.20;1.53;;;27.20;51.90;;;;;;5014349;28;20451;-83
2023/05/18 07:47:31;;;;;;;2.67;1.17;;;27.60;51.80;;;;;;5019554;28;21011;-83
2023/05/18 07:49:58;;;;;;;0.50;0.30;;;27.00;48.30;;;;;;5043527;28;20446;-83
2023/05/18 07:52:25;;;;;;;0.50;0.30;;;26.40;49.10;;;;;;5044382;28;20474;-83
2023/05/18 07:54:52;;;;;;;0.50;0.30;;;26.30;50.70;;;;;;5037401;28;20431;-85
2023/05/18 07:57:19;;;;;;;0.50;0.30;;;26.20;52.30;;;;;;5033534;28;20502;-81
2023/05/18 07:59:48;;;;;;;0.50;0.40;;;25.80;49.60;;;;;;5029175;28;20504;-81
2023/05/18 08:02:15;;;;;;;0.90;0.90;;;26.50;51.60;;;;;;5017622;28;20453;-81
2023/05/18 08:04:42;;;;;;;0.50;0.30;;;26.20;49.90;;;;;;5018373;28;20439;-81
2023/05/18 08:07:09;;;;;;;0.50;0.30;;;25.90;49.50;;;;;;5016718;28;20551;-83
2023/05/18 08:09:36;;;;;;;0.50;0.37;;;25.60;49.90;;;;;;5016450;28;20435;-82
2023/05/18 08:12:03;;;;;;;0.50;0.30;;;25.70;50.20;;;;;;5016781;28;20795;-81
2023/05/18 08:14:30;;;;;;;0.50;0.30;;;25.80;49.70;;;;;;5017846;28;20478;-80
2023/05/18 08:16:58;;;;;;;0.50;0.30;;;26.10;48.80;;;;;;5023629;28;20462;-80
2023/05/18 08:19:25;;;;;;;0.50;0.30;;;26.00;48.70;;;;;;5016720;28;20479;-83
2023/05/18 08:21:52;;;;;;;0.50;0.40;;;25.80;50.80;;;;;;5016671;28;20439;-81
2023/05/18 08:24:19;;;;;;;0.80;0.80;;;26.40;51.40;;;;;;5018131;28;20435;-83
2023/05/18 08:26:46;;;;;;;0.60;0.40;;;27.40;53.00;;;;;;5016255;28;20455;-83
2023/05/18 08:29:12;;;;;;;0.50;0.30;;;28.00;49.60;;;;;;5015868;28;20546;-81
2023/05/18 08:31:41;;;;;;;0.50;0.30;;;28.50;52.40;;;;;;5015706;28;21007;-83
2023/05/18 08:34:09;;;;;;;0.50;0.30;;;28.50;49.60;;;;;;5015767;28;20478;-82
2023/05/18 08:36:36;;;;;;;0.60;0.40;;;28.50;46.10;;;;;;5016069;28;20478;-83
2023/05/18 08:39:04;;;;;;;0.50;0.30;;;27.40;45.30;;;;;;5015819;28;20439;-79
2023/05/18 08:41:36;;;;;;;0.50;0.40;;;26.90;47.70;;;;;;5015634;28;20473;-80
2023/05/18 08:44:06;;;;;;;0.50;0.37;;;26.40;47.60;;;;;;5015711;28;20435;-79
2023/05/18 08:46:35;;;;;;;0.50;0.30;;;26.00;46.70;;;;;;5016471;28;20455;-81
2023/05/18 08:49:02;;;;;;;0.50;0.30;;;25.80;49.50;;;;;;5015774;28;20439;-79
2023/05/18 08:51:35;;;;;;;0.60;0.60;;;26.50;48.40;;;;;;5015977;28;20855;-79
2023/05/18 08:54:04;;;;;;;0.50;0.30;;;26.60;49.40;;;;;;5017564;28;20475;-80
2023/05/18 08:56:33;;;;;;;1.70;0.80;;;26.90;47.70;;;;;;5016337;28;20494;-79
2023/05/18 08:59:03;;;;;;;5.43;0.60;;;25.80;50.20;;;;;;5017505;28;20501;-78
2023/05/18 09:01:30;;;;;;;1.60;1.03;;;25.80;49.50;;;;;;5015797;28;20443;-80
2023/05/18 09:03:58;;;;;;;0.50;0.40;;;26.00;50.30;;;;;;5014918;28;20443;-83
2023/05/18 09:06:27;;;;;;;0.50;0.30;;;25.70;51.80;;;;;;5015887;28;20550;-81
2023/05/18 09:08:56;;;;;;;0.70;0.60;;;26.50;50.70;;;;;;5015397;28;20450;-81
2023/05/18 09:11:24;;;;;;;0.50;0.30;;;27.20;49.60;;;;;;5016436;28;20805;-79
2023/05/18 09:13:51;;;;;;;0.60;0.53;;;27.80;47.10;;;;;;5015642;28;20481;-80
2023/05/18 09:16:18;;;;;;;2.40;0.97;;;28.00;45.50;;;;;;5018551;28;20463;-81
2023/05/18 09:18:45;;;;;;;0.50;0.33;;;27.50;49.00;;;;;;5013738;28;20451;-80
2023/05/18 09:21:12;;;;;;;0.50;0.30;;;27.10;46.00;;;;;;5015328;28;20470;-84
2023/05/18 09:23:40;;;;;;;0.50;0.30;;;27.20;46.50;;;;;;5014460;28;20439;-83
2023/05/18 09:26:10;;;;;;;0.50;0.40;;;27.80;48.60;;;;;;5014804;28;20827;-82
2023/05/18 09:28:39;;;;;;;0.50;0.30;;;27.80;48.90;;;;;;5014057;28;20865;-81
2023/05/18 09:31:08;;;;;;;0.50;0.30;;;28.10;45.80;;;;;;5015076;28;20505;-81
2023/05/18 09:33:37;;;;;;;0.50;0.30;;;27.80;46.80;;;;;;5014249;28;20474;-81
2023/05/18 09:36:05;;;;;;;0.50;0.30;;;28.00;48.70;;;;;;5017375;28;20490;-81
2023/05/18 09:38:37;;;;;;;0.80;0.50;;;28.70;47.10;;;;;;5014939;28;20451;-81
2023/05/18 09:41:04;;;;;;;0.50;0.40;;;28.90;45.60;;;;;;5015972;28;20471;-79
2023/05/18 09:43:35;;;;;;;1.43;1.33;;;27.90;47.10;;;;;;5014367;28;20479;-80
2023/05/18 09:46:07;;;;;;;0.50;0.40;;;27.70;45.40;;;;;;5014302;28;20582;-82
2023/05/18 09:48:36;;;;;;;0.50;0.40;;;27.90;44.70;;;;;;5014778;28;20531;-79
2023/05/18 09:51:05;;;;;;;0.70;0.40;;;27.70;49.80;;;;;;5014286;28;20443;-80
2023/05/18 09:53:34;;;;;;;0.50;0.30;;;28.30;46.30;;;;;;5018230;28;20483;-80
2023/05/18 09:56:06;;;;;;;0.50;0.30;;;28.50;46.70;;;;;;5020003;28;20463;-79
2023/05/18 09:58:35;;;;;;;0.50;0.30;;;28.90;45.80;;;;;;5021824;28;20447;-82
2023/05/18 10:01:02;;;;;;;0.50;0.30;;;29.10;46.30;;;;;;5020103;28;20447;-78
2023/05/18 10:03:36;;;;;;;0.50;0.30;;;28.70;47.20;;;;;;5020929;28;20502;-79
2023/05/18 10:06:05;;;;;;;0.50;0.30;;;29.30;46.80;;;;;;5020542;28;20462;-79
2023/05/18 10:08:32;;;;;;;0.50;0.40;;;29.60;49.00;;;;;;5020177;28;20821;-78
2023/05/18 10:10:59;;;;;;;0.50;0.30;;;29.40;46.60;;;;;;5025199;28;20462;-80
2023/05/18 10:13:28;;;;;;;0.50;0.30;;;29.20;47.40;;;;;;5027236;28;20493;-82
2023/05/18 10:15:58;;;;;;;0.50;0.40;;;29.30;44.80;;;;;;5020230;28;20482;-80
2023/05/18 10:18:26;;;;;;;0.50;0.30;;;29.30;48.50;;;;;;5020401;28;20566;-83
2023/05/18 10:20:54;;;;;;;1.47;0.77;;;28.00;45.80;;;;;;5017744;28;20441;-84
2023/05/18 10:23:23;;;;;;;0.50;0.30;;;28.80;46.50;;;;;;5018083;28;20466;-84
2023/05/18 10:25:51;;;;;;;0.50;0.30;;;29.80;47.90;;;;;;5018321;28;20554;-84
2023/05/18 10:28:24;;;;;;;0.73;0.50;;;29.20;44.50;;;;;;5022014;28;20442;-83
2023/05/18 10:30:54;;;;;;;0.50;0.30;;;28.90;46.40;;;;;;5022579;28;21010;-84
2023/05/18 10:33:23;;;;;;;4.43;1.33;;;29.40;47.30;;;;;;5021046;28;20474;-84
2023/05/18 10:35:50;;;;;;;0.50;0.30;;;29.00;46.00;;;;;;5023695;28;20890;-83
2023/05/18 10:38:20;;;;;;;0.60;0.40;;;28.70;46.30;;;;;;5018289;28;20478;-79
2023/05/18 10:40:49;;;;;;;0.70;0.50;;;28.80;43.80;;;;;;5013538;28;20458;-81
2023/05/18 10:43:19;;;;;;;0.50;0.40;;;29.10;44.20;;;;;;5014733;28;20439;-82
2023/05/18 10:45:48;;;;;;;15.50;1.43;;;28.40;44.60;;;;;;5013278;28;20534;-78
2023/05/18 10:48:16;;;;;;;0.50;0.30;;;28.10;44.10;;;;;;5014235;28;20767;-79
2023/05/18 10:50:44;;;;;;;0.60;0.30;;;28.30;48.80;;;;;;5014209;28;20427;-80
2023/05/18 10:53:14;;;;;;;0.50;0.40;;;28.80;48.20;;;;;;5013699;28;20569;-81
2023/05/18 10:55:40;;;;;;;0.60;0.40;;;28.90;47.50;;;;;;5013635;28;20503;-78
2023/05/18 10:58:13;;;;;;;0.50;0.30;;;29.00;46.60;;;;;;5013199;28;20450;-78
2023/05/18 11:00:41;;;;;;;1.00;0.60;;;29.80;48.30;;;;;;5013161;28;20457;-80
2023/05/18 11:03:12;;;;;;;0.50;0.30;;;29.90;45.00;;;;;;5013145;28;20438;-80
2023/05/18 11:05:39;;;;;;;0.50;0.30;;;29.50;45.60;;;;;;5013003;28;20462;-79
2023/05/18 11:08:09;;;;;;;1.03;0.93;;;29.90;46.30;;;;;;5060100;22;20493;-79
2023/05/18 11:10:39;;;;;;;18.87;1.30;;;29.10;42.70;;;;;;5036339;28;20526;-75
2023/05/18 11:13:07;;;;;;;0.97;0.97;;;29.00;46.80;;;;;;5038831;28;20485;-77
2023/05/18 11:16:10;;;;;;;0.50;0.30;;;29.20;47.00;;;;;;5038894;28;20444;-75
2023/05/18 11:18:40;;;;;;;0.50;0.30;;;28.90;43.70;;;;;;5040544;28;20547;-75
2023/05/18 11:21:21;;;;;;;3.80;0.90;;;28.50;43.60;;;;;;5040743;28;20525;-76
2023/05/18 11:24:25;;;;;;;0.50;0.30;;;28.50;44.40;;;;;;5042245;28;20516;-76
2023/05/18 11:26:53;;;;;;;0.73;0.63;;;28.50;45.70;;;;;;5045321;28;20528;-75
2023/05/18 11:29:23;;;;;;;0.50;0.30;;;28.20;45.60;;;;;;5046401;28;20496;-76
2023/05/18 11:31:51;;;;;;;0.50;0.30;;;28.00;46.40;;;;;;5045655;28;20433;-78
2023/05/18 11:34:46;;;;;;;1.13;1.03;;;27.60;45.90;;;;;;5044099;28;20470;-76
2023/05/18 11:37:14;;;;;;;0.50;0.33;;;26.70;45.30;;;;;;5035768;28;20525;-78
2023/05/18 11:39:53;;;;;;;0.50;0.30;;;26.00;49.10;;;;;;5043815;28;20810;-76
2023/05/18 11:42:20;;;;;;;0.50;0.40;;;26.90;49.80;;;;;;5046122;28;20432;-76
2023/05/18 11:44:54;;;;;;;1.17;1.07;;;27.50;49.10;;;;;;5043758;28;20441;-76
2023/05/18 11:47:21;;;;;;;0.50;0.30;;;27.60;48.50;;;;;;5049278;28;20445;-76
2023/05/18 11:49:51;;;;;;;0.50;0.30;;;27.60;47.00;;;;;;5044056;28;20468;-76
2023/05/18 11:52:20;;;;;;;0.50;0.30;;;26.90;47.00;;;;;;5042495;28;20918;-76
2023/05/18 11:54:51;;;;;;;1.00;0.90;;;27.60;47.60;;;;;;5042444;28;20530;-76
2023/05/18 11:57:20;;;;;;;0.50;0.30;;;27.90;46.00;;;;;;5042486;28;20507;-76
2023/05/18 11:59:48;;;;;;;0.50;0.30;;;28.30;47.40;;;;;;5043654;28;20480;-76
2023/05/18 12:02:20;;;;;;;0.87;0.87;;;28.60;46.70;;;;;;5045384;28;20499;-75
2023/05/18 12:04:49;;;;;;;1.10;0.73;;;28.80;46.60;;;;;;5043730;28;20448;-75
2023/05/18 12:07:18;;;;;;;2.90;2.70;;;28.60;47.90;;;;;;5042125;28;20470;-76
2023/05/18 12:09:45;;;;;;;0.50;0.30;;;28.60;46.70;;;;;;5042899;28;20488;-76
2023/05/18 12:12:16;;;;;;;0.60;0.50;;;29.10;50.60;;;;;;5045102;28;20447;-76
2023/05/18 12:14:44;;;;;;;0.50;0.30;;;28.30;46.80;;;;;;5043926;28;20477;-75
2023/05/18 12:17:11;;;;;;;0.50;0.30;;;28.30;45.10;;;;;;5041896;28;20481;-76
2023/05/18 12:19:41;;;;;;;0.60;0.40;;;28.70;45.40;;;;;;5041951;28;20554;-75
2023/05/18 12:22:09;;;;;;;0.50;0.30;;;28.80;44.70;;;;;;5049038;28;20468;-75
2023/05/18 12:24:36;;;;;;;0.50;0.30;;;28.60;42.80;;;;;;5041304;28;20448;-77
2023/05/18 12:27:05;;;;;;;0.50;0.30;;;28.10;44.00;;;;;;5034027;28;20445;-75
2023/05/18 12:29:34;;;;;;;0.50;0.40;;;27.80;45.90;;;;;;5041252;28;20474;-76
2023/05/18 12:32:06;;;;;;;0.50;0.40;;;27.50;46.40;;;;;;5049150;28;20813;-75
2023/05/18 12:34:32;;;;;;;0.50;0.37;;;26.60;47.50;;;;;;5049294;28;20848;-76
2023/05/18 12:36:59;;;;;;;0.50;0.40;;;27.10;48.30;;;;;;5041557;28;20441;-75
2023/05/18 12:39:26;;;;;;;0.70;0.50;;;27.10;48.70;;;;;;5048138;28;20557;-76
2023/05/18 12:41:53;;;;;;;2.10;2.00;;;27.60;49.80;;;;;;5044252;28;20536;-76
2023/05/18 12:44:21;;;;;;;7.10;2.03;;;27.80;47.90;;;;;;5046800;28;20442;-76
2023/05/18 12:46:49;;;;;;;0.60;0.60;;;27.80;47.90;;;;;;5049361;28;20477;-75
2023/05/18 12:49:18;;;;;;;1.50;0.93;;;28.00;45.90;;;;;;5046724;28;20488;-77
2023/05/18 12:51:45;;;;;;;0.60;0.50;;;27.90;48.30;;;;;;5044506;28;20445;-76
2023/05/18 12:54:12;;;;;;;0.50;0.30;;;27.90;47.10;;;;;;5039566;28;20469;-77
2023/05/18 12:56:50;;;;;;;0.60;0.40;;;28.20;47.60;;;;;;5041413;28;20508;-75